Sagunto, Spain
Current Conditions -  °F | °C
As of 5:00 AM on Friday 28 Nov 2014 (Local Time) from LEBT Reporting Station
Clear Clear  
Wind Chill: 12°   Ceiling: Unl
Heat Index: 12°   Visibility: 4mi
Dew Point: 11°   Wind: 2mph
Humidity: 94%   Direction: 10°N
Pressure: 29.32"   Gusts: NA
Location:  39.68°N, 0.27°W
Report Text: LEBT 280400Z AUTO 01002KT 6000 // NSC 12/11 Q0993
Loading
Personal Weather Stations






























Interactive Weather Map New forecast layout! Learn more

10-Day Weather Forecast

Advertisements
Track Severe Weather on mobile